Time;durP1;ratioP1;P1;durP2;ratioP2;P2;SDS_P1;SDS_P2;PMS_P1;PMS_P2;Temp;Humidity;BMP_temperature;BMP_pressure;BME280_temperature;BME280_humidity;BME280_pressure;Samples;Min_cycle;Max_cycle;Signal;HPM_P1;HPM_P2
2021/08/28 10:50:22;;;;;;;0.10;0.10;;;;;;;32.22;29.92;102264.06;2605307;36;20943;-67
2021/08/28 10:52:50;;;;;;;0.10;0.10;;;;;;;32.57;28.72;102260.03;2605492;31;20039;-67
2021/08/28 10:55:18;;;;;;;0.10;0.10;;;;;;;32.90;28.82;102269.66;2609207;31;21089;-67
2021/08/28 10:57:44;;;;;;;0.00;0.00;;;;;;;33.07;29.42;102273.47;2606515;31;20041;-67
2021/08/28 11:00:17;;;;;;;0.10;0.10;;;;;;;33.29;29.41;102266.88;2610718;31;20105;-67
2021/08/28 11:02:47;;;;;;;0.00;0.00;;;;;;;33.52;29.34;102267.44;2608950;31;20031;-67
2021/08/28 11:05:17;;;;;;;0.10;0.10;;;;;;;33.63;28.70;102279.94;2608793;31;20034;-67
2021/08/28 11:07:44;;;;;;;0.00;0.00;;;;;;;33.75;28.00;102274.19;2607979;31;20041;-67
2021/08/28 11:10:25;;;;;;;0.10;0.10;;;;;;;34.13;28.17;102275.03;2610230;31;20154;-67
2021/08/28 11:13:04;;;;;;;0.00;0.00;;;;;;;34.30;28.27;102279.63;2609547;31;20098;-67
2021/08/28 11:15:34;;;;;;;0.10;0.10;;;;;;;34.46;26.30;102280.84;2608746;36;20082;-67
2021/08/28 11:18:26;;;;;;;0.10;0.10;;;;;;;34.65;28.23;102277.16;2609241;31;20030;-67
2021/08/28 11:21:05;;;;;;;0.10;0.10;;;;;;;34.87;28.99;102276.66;2609851;31;20034;-67
2021/08/28 11:23:39;;;;;;;0.05;0.05;;;;;;;35.05;27.53;102279.41;2609044;31;20034;-67
2021/08/28 11:26:06;;;;;;;0.10;0.10;;;;;;;35.09;26.45;102275.38;2612286;31;20038;-67
2021/08/28 11:28:39;;;;;;;0.10;0.10;;;;;;;35.29;26.93;102276.03;2609571;31;20047;-68
2021/08/28 11:31:06;;;;;;;0.10;0.10;;;;;;;35.33;25.92;102277.41;2613271;31;20055;-67
2021/08/28 11:33:38;;;;;;;0.10;0.10;;;;;;;35.54;26.62;102277.94;2608802;31;20038;-68
2021/08/28 11:36:18;;;;;;;0.00;0.00;;;;;;;35.56;27.39;102288.63;2609481;31;20031;-68
2021/08/28 11:38:53;;;;;;;0.10;0.10;;;;;;;35.70;26.89;102287.19;2610670;31;20042;-68
2021/08/28 11:41:24;;;;;;;0.10;0.10;;;;;;;35.64;27.50;102283.25;2611463;31;20038;-68
2021/08/28 11:43:54;;;;;;;0.10;0.10;;;;;;;35.79;27.15;102278.94;2609079;31;20038;-68
2021/08/28 11:46:29;;;;;;;0.10;0.10;;;;;;;36.08;26.41;102289.44;2611503;31;20720;-68
2021/08/28 11:48:58;;;;;;;0.07;0.07;;;;;;;36.11;25.74;102293.69;2610747;31;20038;-67
2021/08/28 11:51:28;;;;;;;0.10;0.10;;;;;;;36.17;26.34;102268.56;2609810;31;20045;-68
2021/08/28 11:53:58;;;;;;;0.10;0.10;;;;;;;36.43;26.27;102283.97;2610973;31;20040;-68
2021/08/28 11:56:32;;;;;;;0.10;0.10;;;;;;;36.55;26.23;102285.38;2609952;31;20042;-68
2021/08/28 11:59:06;;;;;;;0.10;0.10;;;;;;;36.54;25.01;102279.03;2610732;31;20034;-68
2021/08/28 12:01:41;;;;;;;0.10;0.10;;;;;;;36.67;25.58;102275.84;2610605;36;20031;-67
2021/08/28 12:04:12;;;;;;;0.10;0.10;;;;;;;36.64;25.30;102284.31;2610002;31;20068;-68
2021/08/28 12:06:41;;;;;;;0.00;0.00;;;;;;;36.66;24.90;102282.31;2610476;31;20755;-67
2021/08/28 12:09:11;;;;;;;0.10;0.10;;;;;;;36.71;25.34;102279.09;2611513;31;20034;-68
2021/08/28 12:11:45;;;;;;;0.08;0.08;;;;;;;36.86;25.29;102275.53;2611079;36;20038;-67
2021/08/28 12:14:12;;;;;;;0.00;0.00;;;;;;;36.82;24.77;102276.88;2611750;31;20564;-68
2021/08/28 12:16:41;;;;;;;0.00;0.00;;;;;;;36.93;24.53;102280.31;2610932;36;20057;-68
2021/08/28 12:19:21;;;;;;;0.10;0.10;;;;;;;37.10;25.12;102279.28;2610332;31;20041;-67
2021/08/28 12:21:55;;;;;;;0.00;0.00;;;;;;;37.11;24.74;102281.00;2609798;31;21104;-68
2021/08/28 12:24:26;;;;;;;0.00;0.00;;;;;;;37.07;24.71;102285.06;2608832;31;20038;-67
2021/08/28 12:26:56;;;;;;;0.10;0.10;;;;;;;37.03;24.68;102286.44;2610054;36;20074;-67
2021/08/28 12:29:29;;;;;;;0.10;0.10;;;;;;;37.08;24.77;102284.06;2609983;31;20038;-67
2021/08/28 12:31:58;;;;;;;0.10;0.10;;;;;;;36.99;24.04;102276.91;2611338;31;20031;-67
2021/08/28 12:34:30;;;;;;;0.00;0.00;;;;;;;37.08;24.45;102284.06;2607702;36;20122;-67
2021/08/28 12:36:59;;;;;;;0.10;0.10;;;;;;;37.13;23.69;102289.84;2610319;31;20030;-67
2021/08/28 12:39:27;;;;;;;0.00;0.00;;;;;;;37.17;24.27;102287.63;2611395;31;20045;-67
2021/08/28 12:41:55;;;;;;;0.10;0.10;;;;;;;37.24;23.87;102281.31;2610644;31;20037;-67
2021/08/28 12:44:30;;;;;;;0.10;0.10;;;;;;;37.36;22.98;102284.50;2612099;31;20042;-68
2021/08/28 12:46:59;;;;;;;0.10;0.10;;;;;;;37.47;23.89;102286.09;2607689;31;20038;-67
2021/08/28 12:49:29;;;;;;;0.00;0.00;;;;;;;37.54;23.33;102292.53;2612885;31;20062;-67
2021/08/28 12:52:05;;;;;;;0.10;0.10;;;;;;;37.71;23.88;102288.72;2610236;31;20034;-68
2021/08/28 12:54:48;;;;;;;0.10;0.10;;;;;;;37.79;23.63;102285.97;1960352;31;10021468;-68
2021/08/28 12:57:27;;;;;;;0.10;0.10;;;;;;;37.83;22.71;102276.44;1421932;31;10001860;-67
2021/08/28 12:59:57;;;;;;;0.10;0.10;;;;;;;37.88;23.48;102290.41;2611747;36;20037;-68
2021/08/28 13:02:25;;;;;;;0.05;0.05;;;;;;;37.90;22.62;102280.16;2606507;36;20042;-67
2021/08/28 13:04:53;;;;;;;0.10;0.10;;;;;;;37.97;22.25;102282.16;2612013;36;20038;-67
2021/08/28 13:07:30;;;;;;;0.00;0.00;;;;;;;38.05;22.50;102285.72;2610964;31;20034;-67
2021/08/28 13:09:57;;;;;;;0.03;0.03;;;;;;;38.13;21.70;102276.66;2609638;31;20030;-67
2021/08/28 13:12:44;;;;;;;0.00;0.00;;;;;;;38.34;23.63;102276.91;2610623;31;20041;-67
2021/08/28 13:15:23;;;;;;;0.10;0.10;;;;;;;38.44;23.17;102273.09;2612021;31;20061;-67
2021/08/28 13:18:18;;;;;;;0.10;0.10;;;;;;;38.51;23.20;102274.06;2609093;36;20038;-67
2021/08/28 13:20:49;;;;;;;0.10;0.10;;;;;;;38.48;22.03;102271.72;2575531;31;2004191;-67
2021/08/28 13:23:20;;;;;;;0.00;0.00;;;;;;;38.68;22.56;102281.13;2612024;31;20039;-67
2021/08/28 13:25:49;;;;;;;0.00;0.00;;;;;;;38.78;21.69;102281.75;2610167;31;20034;-67
2021/08/28 13:28:24;;;;;;;0.00;0.00;;;;;;;38.92;21.89;102278.19;2610701;31;20037;-67
2021/08/28 13:30:58;;;;;;;0.10;0.10;;;;;;;38.99;21.85;102285.69;2609472;36;20039;-67
2021/08/28 13:33:31;;;;;;;0.10;0.10;;;;;;;38.99;21.98;102282.94;2609997;31;20042;-67
2021/08/28 13:36:03;;;;;;;0.10;0.10;;;;;;;39.02;21.03;102282.56;2611460;31;20105;-67
2021/08/28 13:38:30;;;;;;;0.10;0.10;;;;;;;39.07;20.62;102282.84;2609144;31;20442;-67
2021/08/28 13:40:58;;;;;;;0.00;0.00;;;;;;;39.15;20.71;102283.63;2611575;31;20042;-67
2021/08/28 13:43:27;;;;;;;0.10;0.10;;;;;;;39.27;20.30;102275.84;2609351;31;20034;-67
2021/08/28 13:45:56;;;;;;;0.00;0.00;;;;;;;39.29;20.54;102278.44;2610139;31;20629;-67
2021/08/28 13:48:23;;;;;;;0.00;0.00;;;;;;;39.36;20.35;102277.47;2609443;36;20041;-67
2021/08/28 13:50:50;;;;;;;0.00;0.00;;;;;;;39.39;20.64;102274.38;2611588;31;20058;-67
2021/08/28 13:53:17;;;;;;;0.00;0.00;;;;;;;39.43;20.80;102277.56;2610350;31;20034;-67
2021/08/28 13:55:45;;;;;;;0.00;0.00;;;;;;;39.46;20.84;102273.63;2609731;31;20037;-67
2021/08/28 13:58:12;;;;;;;0.00;0.00;;;;;;;39.47;20.27;102267.13;2610834;31;20030;-67
2021/08/28 14:00:39;;;;;;;0.00;0.00;;;;;;;39.55;20.82;102267.03;2611421;31;20071;-67
2021/08/28 14:03:06;;;;;;;0.00;0.00;;;;;;;39.66;19.92;102274.78;2611014;31;20103;-67
2021/08/28 14:05:34;;;;;;;0.00;0.00;;;;;;;39.77;20.67;102268.84;2610548;31;20066;-67
2021/08/28 14:08:02;;;;;;;0.00;0.00;;;;;;;39.88;19.97;102272.97;2607912;31;20126;-67
2021/08/28 14:10:29;;;;;;;0.10;0.10;;;;;;;39.90;19.64;102269.03;2610421;31;20046;-67
2021/08/28 14:12:56;;;;;;;0.05;0.05;;;;;;;39.90;20.12;102270.91;2610818;31;20091;-67
2021/08/28 14:15:23;;;;;;;0.10;0.10;;;;;;;39.92;20.27;102266.09;2609306;31;20070;-67
2021/08/28 14:17:50;;;;;;;0.10;0.10;;;;;;;39.93;20.58;102262.31;2609275;31;20062;-67
2021/08/28 14:20:20;;;;;;;0.00;0.00;;;;;;;39.98;20.47;102267.19;2609238;31;20065;-67
2021/08/28 14:22:49;;;;;;;0.00;0.00;;;;;;;40.06;20.53;102257.00;2609826;36;20045;-67
2021/08/28 14:25:18;;;;;;;0.10;0.10;;;;;;;40.14;20.10;102262.38;2609808;31;20062;-67
2021/08/28 14:27:46;;;;;;;0.10;0.10;;;;;;;40.24;19.47;102255.75;2610055;36;20081;-67
2021/08/28 14:30:13;;;;;;;0.10;0.10;;;;;;;40.36;19.09;102259.69;2612025;31;20042;-67
2021/08/28 14:32:40;;;;;;;0.00;0.00;;;;;;;40.34;19.35;102253.53;2612113;31;20037;-67
2021/08/28 14:35:09;;;;;;;0.10;0.10;;;;;;;40.34;19.11;102256.28;2610734;31;20058;-67
2021/08/28 14:37:37;;;;;;;0.10;0.10;;;;;;;40.36;19.47;102249.59;2611804;31;20034;-67
2021/08/28 14:40:05;;;;;;;0.10;0.10;;;;;;;40.42;19.78;102251.53;2614402;31;20026;-67
2021/08/28 14:42:32;;;;;;;0.00;0.00;;;;;;;40.47;19.44;102250.94;2609965;31;20038;-67
2021/08/28 14:44:59;;;;;;;0.00;0.00;;;;;;;40.54;18.89;102251.03;2611885;31;20035;-67
2021/08/28 14:47:28;;;;;;;0.00;0.00;;;;;;;40.67;18.68;102245.69;2611757;31;20059;-67
2021/08/28 14:49:55;;;;;;;0.10;0.10;;;;;;;40.74;18.83;102249.31;2613804;31;20034;-67
2021/08/28 14:52:33;;;;;;;0.00;0.00;;;;;;;40.84;18.65;102247.09;702559;36;10021903;-67
2021/08/28 14:55:01;;;;;;;0.10;0.10;;;;;;;40.81;18.27;102243.91;2609937;36;20777;-67
2021/08/28 14:57:29;;;;;;;0.00;0.00;;;;;;;40.80;18.41;102240.31;2611857;31;20034;-67
2021/08/28 14:59:57;;;;;;;0.10;0.10;;;;;;;40.79;18.45;102255.06;2610180;36;20073;-67
2021/08/28 15:02:24;;;;;;;0.10;0.10;;;;;;;40.80;18.79;102245.78;2610794;31;20065;-68
2021/08/28 15:04:51;;;;;;;0.10;0.10;;;;;;;40.85;19.14;102246.03;2611210;31;20082;-68
2021/08/28 15:07:18;;;;;;;0.00;0.00;;;;;;;40.92;17.84;102249.72;2609953;31;20094;-68
2021/08/28 15:09:45;;;;;;;0.00;0.00;;;;;;;40.95;18.34;102243.84;2609229;36;20038;-68
2021/08/28 15:12:12;;;;;;;0.10;0.10;;;;;;;40.93;18.16;102251.44;2610148;31;20038;-68
2021/08/28 15:14:39;;;;;;;0.00;0.00;;;;;;;40.87;17.91;102237.66;2610723;31;20034;-68
2021/08/28 15:17:07;;;;;;;0.00;0.00;;;;;;;40.92;17.93;102249.72;2610150;36;20038;-68
2021/08/28 15:19:35;;;;;;;0.03;0.03;;;;;;;40.87;18.22;102238.50;2611724;31;20105;-68
2021/08/28 15:22:02;;;;;;;0.10;0.10;;;;;;;40.88;18.20;102242.06;2609627;31;20034;-68
2021/08/28 15:24:31;;;;;;;0.10;0.10;;;;;;;40.86;18.83;102245.03;2609826;31;21254;-68
2021/08/28 15:26:58;;;;;;;0.00;0.00;;;;;;;40.86;18.36;102245.03;2612542;31;20030;-68
2021/08/28 15:29:27;;;;;;;0.10;0.10;;;;;;;40.91;18.15;102242.53;2609660;31;20035;-68
2021/08/28 15:31:54;;;;;;;0.10;0.10;;;;;;;40.95;18.25;102243.00;2608487;31;20049;-68
2021/08/28 15:34:21;;;;;;;0.10;0.10;;;;;;;40.94;17.73;102247.63;2613695;31;20035;-68
2021/08/28 15:36:55;;;;;;;0.10;0.10;;;;;;;41.03;18.82;102255.72;2608856;36;20134;-68
2021/08/28 15:39:22;;;;;;;0.10;0.10;;;;;;;40.96;18.55;102245.56;2613101;31;20042;-68
2021/08/28 15:41:50;;;;;;;0.10;0.10;;;;;;;41.00;17.72;102247.88;2606913;36;20038;-68
2021/08/28 15:44:18;;;;;;;0.00;0.00;;;;;;;41.03;17.91;102250.25;2611126;31;20645;-68
2021/08/28 15:46:46;;;;;;;0.00;0.00;;;;;;;40.96;17.99;102256.53;2608209;36;20771;-68
2021/08/28 15:49:13;;;;;;;0.00;0.00;;;;;;;40.89;17.63;102250.09;2611836;36;20033;-68
2021/08/28 15:51:43;;;;;;;0.00;0.00;;;;;;;40.76;18.19;102241.78;2610995;31;20059;-68
2021/08/28 15:54:11;;;;;;;0.10;0.10;;;;;;;40.68;17.94;102252.88;2609971;31;20565;-68
2021/08/28 15:56:38;;;;;;;0.00;0.00;;;;;;;40.64;17.91;102251.56;2612125;31;20462;-68
2021/08/28 15:59:06;;;;;;;0.00;0.00;;;;;;;40.63;18.29;102244.38;2609174;31;20031;-68
2021/08/28 16:01:33;;;;;;;0.00;0.00;;;;;;;40.58;18.35;102242.25;2609194;31;20116;-68
2021/08/28 16:04:01;;;;;;;0.03;0.03;;;;;;;40.49;18.18;102237.91;2607382;31;20137;-68
2021/08/28 16:06:29;;;;;;;0.00;0.00;;;;;;;40.51;17.73;102256.91;2612174;31;20041;-68
2021/08/28 16:08:56;;;;;;;0.00;0.00;;;;;;;40.51;18.28;102245.97;2609192;31;20041;-68
2021/08/28 16:11:25;;;;;;;0.00;0.00;;;;;;;40.57;18.61;102250.66;2614303;31;20033;-68
2021/08/28 16:13:52;;;;;;;0.00;0.00;;;;;;;40.59;17.90;102254.03;2609560;36;20030;-68
2021/08/28 16:16:20;;;;;;;0.00;0.00;;;;;;;40.60;17.58;102250.25;2611725;31;20042;-68
2021/08/28 16:18:47;;;;;;;0.00;0.00;;;;;;;40.57;17.66;102250.66;2607220;31;20444;-68
2021/08/28 16:21:15;;;;;;;0.00;0.00;;;;;;;40.56;17.30;102259.91;2610686;31;20034;-68
2021/08/28 16:23:42;;;;;;;0.00;0.00;;;;;;;40.55;16.95;102255.47;2610934;31;20034;-68
2021/08/28 16:26:09;;;;;;;0.00;0.00;;;;;;;40.53;17.73;102249.34;2608593;31;20030;-68
2021/08/28 16:28:36;;;;;;;0.10;0.10;;;;;;;40.51;17.44;102251.44;2609582;31;20000;-67
2021/08/28 16:31:03;;;;;;;0.00;0.00;;;;;;;40.45;17.66;102248.41;2610221;36;20057;-68
2021/08/28 16:33:31;;;;;;;0.00;0.00;;;;;;;40.35;17.55;102247.91;2611459;31;20034;-68
2021/08/28 16:36:00;;;;;;;0.00;0.00;;;;;;;40.20;17.74;102247.94;2611268;31;20030;-68
2021/08/28 16:38:28;;;;;;;0.00;0.00;;;;;;;40.00;17.58;102243.22;2609311;31;20062;-68
2021/08/28 16:40:55;;;;;;;0.00;0.00;;;;;;;39.82;18.28;102247.22;2612629;31;20038;-67
2021/08/28 16:43:22;;;;;;;0.03;0.03;;;;;;;39.72;18.77;102252.16;2608171;31;20042;-68
2021/08/28 16:45:49;;;;;;;0.00;0.00;;;;;;;39.69;18.64;102258.84;2610743;36;20034;-67
2021/08/28 16:48:19;;;;;;;0.00;0.00;;;;;;;39.69;19.06;102257.97;2610552;31;20046;-67
2021/08/28 16:50:46;;;;;;;0.00;0.00;;;;;;;39.66;18.80;102242.81;2611996;31;20035;-68
2021/08/28 16:53:13;;;;;;;0.00;0.00;;;;;;;39.64;18.48;102249.50;2609184;31;20038;-68
2021/08/28 16:55:40;;;;;;;0.00;0.00;;;;;;;39.62;18.84;102246.94;2609650;31;20223;-68
2021/08/28 16:58:07;;;;;;;0.00;0.00;;;;;;;39.61;19.50;102249.88;2610931;31;20038;-68
2021/08/28 17:00:34;;;;;;;0.00;0.00;;;;;;;39.57;19.11;102243.06;2611340;31;21193;-68
2021/08/28 17:03:02;;;;;;;0.00;0.00;;;;;;;39.51;18.70;102246.56;2609842;36;20055;-68
2021/08/28 17:05:29;;;;;;;0.00;0.00;;;;;;;39.44;19.14;102249.22;2607258;36;20035;-68
2021/08/28 17:07:56;;;;;;;0.00;0.00;;;;;;;39.36;19.79;102252.88;2607859;31;20030;-68
2021/08/28 17:10:24;;;;;;;0.00;0.00;;;;;;;39.28;19.94;102249.38;2611956;31;20036;-68
2021/08/28 17:12:51;;;;;;;0.00;0.00;;;;;;;39.15;20.18;102255.47;2604668;31;20130;-68
2021/08/28 17:15:18;;;;;;;0.00;0.00;;;;;;;39.05;19.43;102265.81;2612438;31;20030;-68
2021/08/28 17:17:45;;;;;;;0.00;0.00;;;;;;;38.91;19.72;102260.13;2609669;31;20055;-68
2021/08/28 17:20:12;;;;;;;0.00;0.00;;;;;;;38.78;20.01;102259.91;2612147;31;20046;-68
2021/08/28 17:22:40;;;;;;;0.10;0.10;;;;;;;38.69;20.21;102266.44;2610888;31;20045;-68
2021/08/28 17:25:08;;;;;;;0.00;0.00;;;;;;;38.62;20.55;102257.25;2608482;31;20042;-67
2021/08/28 17:27:35;;;;;;;0.00;0.00;;;;;;;38.46;20.57;102244.56;2608688;36;20046;-68
2021/08/28 17:30:03;;;;;;;0.00;0.00;;;;;;;38.43;20.56;102261.34;2610893;31;20055;-68
2021/08/28 17:32:31;;;;;;;0.10;0.10;;;;;;;38.27;20.71;102251.31;2610075;31;20031;-68
2021/08/28 17:34:58;;;;;;;0.10;0.10;;;;;;;38.09;21.00;102253.50;2611024;31;20086;-68
2021/08/28 17:37:25;;;;;;;0.08;0.08;;;;;;;37.94;21.53;102260.72;2611709;31;20034;-68
2021/08/28 17:39:52;;;;;;;0.00;0.00;;;;;;;37.81;20.46;102255.78;2609408;36;20035;-67
2021/08/28 17:42:19;;;;;;;0.00;0.00;;;;;;;37.74;21.45;102255.66;2610913;31;20050;-68
2021/08/28 17:44:46;;;;;;;0.00;0.00;;;;;;;37.65;21.26;102248.53;2611870;31;20066;-67
2021/08/28 17:47:13;;;;;;;0.00;0.00;;;;;;;37.54;20.79;102255.22;2612356;31;20030;-67
2021/08/28 17:49:40;;;;;;;0.00;0.00;;;;;;;37.41;20.68;102249.44;2610387;31;20042;-67
2021/08/28 17:52:07;;;;;;;0.00;0.00;;;;;;;37.25;21.64;102244.84;2610831;31;20030;-67
2021/08/28 17:54:34;;;;;;;0.00;0.00;;;;;;;37.06;21.62;102242.53;2611217;31;20042;-68
2021/08/28 17:57:01;;;;;;;0.08;0.08;;;;;;;36.94;21.74;102250.19;2609985;31;20619;-67
2021/08/28 17:59:28;;;;;;;0.00;0.00;;;;;;;36.78;22.00;102247.44;2608386;36;20038;-68
2021/08/28 18:01:56;;;;;;;0.00;0.00;;;;;;;36.57;22.14;102235.16;2610177;31;20030;-68
2021/08/28 18:04:23;;;;;;;0.00;0.00;;;;;;;36.36;22.52;102238.34;2606504;31;20046;-67
2021/08/28 18:06:50;;;;;;;0.03;0.03;;;;;;;36.14;22.20;102238.97;2610104;36;20034;-67
2021/08/28 18:09:18;;;;;;;0.00;0.00;;;;;;;35.88;22.86;102234.41;2609936;31;20086;-67
2021/08/28 18:11:45;;;;;;;0.00;0.00;;;;;;;35.67;23.30;102242.16;2609784;31;20042;-67
2021/08/28 18:14:12;;;;;;;0.00;0.00;;;;;;;35.46;24.05;102233.56;2609936;31;20061;-67
2021/08/28 18:16:39;;;;;;;0.00;0.00;;;;;;;35.24;23.45;102224.06;2610550;31;20030;-67
2021/08/28 18:19:06;;;;;;;0.10;0.10;;;;;;;35.09;23.84;102235.50;2609056;31;20046;-67
2021/08/28 18:21:33;;;;;;;0.00;0.00;;;;;;;34.90;23.48;102229.38;2609949;31;20089;-68
2021/08/28 18:24:00;;;;;;;0.00;0.00;;;;;;;34.56;24.00;102213.81;2610617;31;20027;-67
2021/08/28 18:26:27;;;;;;;0.00;0.00;;;;;;;34.41;24.56;102228.88;2608195;36;20042;-67
2021/08/28 18:28:56;;;;;;;0.00;0.00;;;;;;;34.16;24.87;102228.63;2608566;36;20559;-67
2021/08/28 18:31:23;;;;;;;0.03;0.03;;;;;;;33.91;24.95;102229.31;2607508;36;20034;-67
2021/08/28 18:33:50;;;;;;;0.00;0.00;;;;;;;33.64;25.50;102239.16;2610915;31;20049;-67
2021/08/28 18:36:17;;;;;;;0.00;0.00;;;;;;;33.36;26.32;102234.66;2610523;31;20034;-68
2021/08/28 18:38:44;;;;;;;0.00;0.00;;;;;;;33.01;26.24;102230.75;2609879;36;20034;-67
2021/08/28 18:41:11;;;;;;;;;;;;;;;32.79;25.30;102234.56;2610992;31;20038;-67
2021/08/28 18:43:40;;;;;;;0.00;0.00;;;;;;;32.39;26.67;102231.97;2610403;36;21027;-67
2021/08/28 18:46:07;;;;;;;0.00;0.00;;;;;;;32.02;27.46;102237.97;2607856;31;20041;-67
2021/08/28 18:48:34;;;;;;;0.00;0.00;;;;;;;31.67;28.58;102243.78;2610099;31;20030;-67
2021/08/28 18:51:01;;;;;;;0.00;0.00;;;;;;;31.38;28.61;102238.25;2609705;36;20053;-67
2021/08/28 18:53:28;;;;;;;0.00;0.00;;;;;;;31.09;29.03;102241.59;2608904;31;20045;-67
2021/08/28 18:55:55;;;;;;;0.00;0.00;;;;;;;30.82;29.18;102230.44;2607829;31;21604;-67
2021/08/28 18:58:22;;;;;;;0.00;0.00;;;;;;;30.53;29.40;102236.41;2609870;31;20069;-67
2021/08/28 19:00:49;;;;;;;0.00;0.00;;;;;;;30.26;29.82;102231.44;2608826;31;20122;-67
2021/08/28 19:03:16;;;;;;;0.00;0.00;;;;;;;30.02;31.01;102237.00;2609473;31;20034;-67
2021/08/28 19:05:44;;;;;;;0.00;0.00;;;;;;;29.83;31.32;102242.13;2607199;36;20613;-67
2021/08/28 19:08:12;;;;;;;0.00;0.00;;;;;;;29.64;32.30;102243.59;2610618;31;20038;-67
2021/08/28 19:10:39;;;;;;;0.00;0.00;;;;;;;29.45;32.47;102243.28;2609637;31;20876;-67
2021/08/28 19:13:06;;;;;;;0.00;0.00;;;;;;;29.25;31.79;102241.28;2608513;31;20038;-67
2021/08/28 19:15:35;;;;;;;0.00;0.00;;;;;;;28.94;32.99;102227.53;2609722;36;20034;-67
2021/08/28 19:18:03;;;;;;;0.00;0.00;;;;;;;28.88;31.93;102244.09;2610010;31;20034;-67
2021/08/28 19:20:30;;;;;;;0.00;0.00;;;;;;;28.69;32.70;102250.88;2608406;31;20042;-67
2021/08/28 19:22:57;;;;;;;;;;;;;;;28.54;30.68;102248.44;2610821;31;20034;-67
2021/08/28 19:25:24;;;;;;;;;;;;;;;28.37;30.66;102249.72;2609353;31;19954;-67
2021/08/28 19:27:51;;;;;;;0.00;0.00;;;;;;;28.23;33.59;102247.13;2607679;36;19971;-67
2021/08/28 19:30:19;;;;;;;;;;;;;;;28.03;31.21;102246.78;2610499;31;20056;-66
2021/08/28 19:32:50;;;;;;;0.00;0.00;;;;;;;27.87;33.57;102251.50;2611119;31;20033;-66
2021/08/28 19:35:17;;;;;;;0.00;0.00;;;;;;;27.68;33.18;102247.44;2609256;31;20030;-66
2021/08/28 19:37:44;;;;;;;;;;;;;;;27.51;31.69;102255.78;2608722;31;20080;-66
2021/08/28 19:40:12;;;;;;;0.00;0.00;;;;;;;27.35;33.27;102255.13;2609688;31;19947;-66
2021/08/28 19:42:38;;;;;;;;;;;;;;;27.19;31.92;102254.47;2610398;36;20030;-66
2021/08/28 19:45:07;;;;;;;0.00;0.00;;;;;;;27.01;34.12;102246.69;2611387;31;19992;-66
2021/08/28 19:47:34;;;;;;;0.00;0.00;;;;;;;26.90;34.78;102249.22;2609340;31;20561;-66
2021/08/28 19:50:03;;;;;;;0.00;0.00;;;;;;;26.74;34.82;102253.91;2610077;31;20076;-66
2021/08/28 19:52:30;;;;;;;0.00;0.00;;;;;;;26.59;36.16;102248.59;2608618;31;20038;-66
2021/08/28 19:54:57;;;;;;;;;;;;;;;26.46;32.93;102255.72;2610860;31;20035;-66
2021/08/28 19:57:24;;;;;;;0.00;0.00;;;;;;;26.36;36.56;102267.97;2606064;31;19957;-66
2021/08/28 19:59:51;;;;;;;0.00;0.00;;;;;;;26.20;35.87;102253.81;2610549;31;20054;-66
2021/08/28 20:02:18;;;;;;;0.00;0.00;;;;;;;26.11;36.22;102266.84;2607243;36;20039;-67
2021/08/28 20:04:45;;;;;;;0.00;0.00;;;;;;;25.97;35.92;102268.69;2608718;31;20034;-67
2021/08/28 20:07:12;;;;;;;0.00;0.00;;;;;;;25.81;36.85;102260.75;2609811;31;20633;-67
2021/08/28 20:09:39;;;;;;;0.00;0.00;;;;;;;25.73;36.08;102271.03;2610841;31;20038;-67
2021/08/28 20:12:07;;;;;;;0.00;0.00;;;;;;;25.61;36.88;102270.84;2610338;31;20034;-68
2021/08/28 20:14:34;;;;;;;0.00;0.00;;;;;;;25.51;36.79;102267.00;2613867;31;20541;-67
2021/08/28 20:17:01;;;;;;;0.00;0.00;;;;;;;25.42;36.33;102269.38;2607378;36;20049;-67
2021/08/28 20:19:28;;;;;;;0.00;0.00;;;;;;;25.34;36.32;102269.81;2610188;31;20058;-67
2021/08/28 20:21:55;;;;;;;0.00;0.00;;;;;;;25.25;36.15;102270.38;2614819;31;20562;-67
2021/08/28 20:24:22;;;;;;;0.00;0.00;;;;;;;25.16;37.52;102270.94;2610714;31;20081;-67
2021/08/28 20:26:50;;;;;;;0.00;0.00;;;;;;;25.04;36.89;102267.13;2609376;31;20061;-67
2021/08/28 20:29:17;;;;;;;0.00;0.00;;;;;;;24.93;37.28;102269.56;2608493;31;20046;-67
2021/08/28 20:31:44;;;;;;;0.00;0.00;;;;;;;24.85;38.21;102267.34;2610143;36;20038;-67
2021/08/28 20:34:11;;;;;;;0.00;0.00;;;;;;;24.76;38.36;102262.53;2611408;31;20038;-67
2021/08/28 20:36:39;;;;;;;0.00;0.00;;;;;;;24.69;37.65;102266.53;2612061;31;20030;-67
2021/08/28 20:39:06;;;;;;;0.00;0.00;;;;;;;24.52;37.76;102246.94;2608734;31;20609;-67
2021/08/28 20:41:33;;;;;;;0.00;0.00;;;;;;;24.54;39.42;102258.44;2609473;31;20049;-67
2021/08/28 20:44:00;;;;;;;0.00;0.00;;;;;;;24.48;38.23;102266.78;2607689;31;20057;-67
2021/08/28 20:46:27;;;;;;;0.00;0.00;;;;;;;24.41;38.52;102260.06;2607670;36;20034;-67
2021/08/28 20:48:54;;;;;;;0.00;0.00;;;;;;;24.32;38.22;102258.72;2610858;31;20061;-67
2021/08/28 20:51:21;;;;;;;0.00;0.00;;;;;;;24.29;38.93;102268.72;2611249;31;20040;-67
2021/08/28 20:53:48;;;;;;;0.00;0.00;;;;;;;24.21;39.28;102265.59;2605462;31;20125;-67
2021/08/28 20:56:16;;;;;;;0.00;0.00;;;;;;;24.14;38.78;102261.56;2608779;31;20049;-67
2021/08/28 20:58:43;;;;;;;;;;;;;;;24.05;36.60;102265.59;2613953;31;20030;-67
2021/08/28 21:01:10;;;;;;;0.00;0.00;;;;;;;23.97;38.62;102263.31;2610556;31;19978;-67
2021/08/28 21:03:37;;;;;;;;;;;;;;;23.87;36.66;102267.44;2608431;36;20030;-67
2021/08/28 21:06:04;;;;;;;0.00;0.00;;;;;;;23.76;38.69;102275.16;2608900;31;19956;-67
2021/08/28 21:08:31;;;;;;;0.00;0.00;;;;;;;23.51;39.17;102247.06;2608814;31;20034;-67
2021/08/28 21:10:58;;;;;;;0.00;0.00;;;;;;;23.55;39.10;102277.97;2610001;36;20034;-67
2021/08/28 21:13:25;;;;;;;0.00;0.00;;;;;;;23.45;39.46;102271.41;2609212;36;20031;-67
2021/08/28 21:15:52;;;;;;;0.00;0.00;;;;;;;23.37;39.50;102272.72;2610763;31;20042;-67
2021/08/28 21:18:19;;;;;;;0.00;0.00;;;;;;;23.31;40.92;102271.25;2609204;31;20030;-67
2021/08/28 21:20:46;;;;;;;0.00;0.00;;;;;;;23.25;40.10;102266.22;2607978;36;20086;-67
2021/08/28 21:23:13;;;;;;;0.00;0.00;;;;;;;23.21;39.85;102272.66;2606797;36;20034;-67
2021/08/28 21:25:40;;;;;;;0.00;0.00;;;;;;;23.15;40.59;102268.50;2609001;36;20109;-67
2021/08/28 21:28:08;;;;;;;0.00;0.00;;;;;;;23.12;40.09;102268.69;2608709;31;20038;-67
2021/08/28 21:30:35;;;;;;;0.00;0.00;;;;;;;23.09;40.30;102259.97;2609850;36;20183;-67
2021/08/28 21:33:02;;;;;;;0.00;0.00;;;;;;;22.98;40.61;102256.03;2609648;31;20989;-68
2021/08/28 21:35:29;;;;;;;0.00;0.00;;;;;;;22.98;40.70;102261.38;2608390;31;20078;-67
2021/08/28 21:37:56;;;;;;;0.00;0.00;;;;;;;22.93;40.84;102263.41;2609509;31;20034;-67
2021/08/28 21:40:23;;;;;;;0.00;0.00;;;;;;;22.83;41.32;102256.78;2610020;31;20581;-67
2021/08/28 21:42:50;;;;;;;0.00;0.00;;;;;;;22.83;42.18;102266.56;2608929;31;20068;-67
2021/08/28 21:45:17;;;;;;;0.00;0.00;;;;;;;22.76;41.33;102263.34;2608686;31;20082;-67
2021/08/28 21:47:44;;;;;;;0.00;0.00;;;;;;;22.69;42.65;102264.56;2608079;36;20204;-67
2021/08/28 21:50:11;;;;;;;0.00;0.00;;;;;;;22.63;40.87;102259.56;2608529;36;20046;-67
2021/08/28 21:52:39;;;;;;;0.00;0.00;;;;;;;22.66;41.37;102270.94;2611930;31;20034;-67
2021/08/28 21:55:06;;;;;;;0.00;0.00;;;;;;;22.63;41.45;102264.88;2607747;36;20149;-67
2021/08/28 21:57:33;;;;;;;;;;;;;;;22.57;39.05;102271.38;2608772;31;20034;-67
2021/08/28 22:00:00;;;;;;;0.00;0.00;;;;;;;22.54;42.09;102267.03;2607906;36;19998;-67
2021/08/28 22:02:30;;;;;;;0.00;0.00;;;;;;;22.48;41.70;102262.00;2608266;31;20049;-67
2021/08/28 22:04:57;;;;;;;0.00;0.00;;;;;;;22.43;42.17;102264.03;2609863;31;20041;-67
2021/08/28 22:07:24;;;;;;;0.00;0.00;;;;;;;22.36;42.55;102265.28;2607455;31;20041;-67
2021/08/28 22:09:53;;;;;;;0.00;0.00;;;;;;;22.31;43.24;102263.75;2608009;31;20541;-67
2021/08/28 22:12:20;;;;;;;0.00;0.00;;;;;;;22.26;42.39;102266.63;2607256;36;20061;-67
2021/08/28 22:14:47;;;;;;;0.00;0.00;;;;;;;22.20;43.70;102272.22;2607767;31;20031;-67
2021/08/28 22:17:14;;;;;;;0.00;0.00;;;;;;;22.15;42.72;102264.47;2609279;31;20034;-67
2021/08/28 22:19:41;;;;;;;0.00;0.00;;;;;;;22.11;42.56;102278.00;2609510;31;20035;-67
2021/08/28 22:22:08;;;;;;;0.00;0.00;;;;;;;21.98;42.57;102262.53;2607957;31;20042;-68